Chamberlain, South Dakota
Current Conditions -  °F | °C
As of 7:55 AM on Saturday 22 Nov 2014 (Local Time) from K9V9 Reporting Station
Clear Clear  
Wind Chill: 23°   Ceiling: Unl
Heat Index: 23°   Visibility: 10mi
Dew Point: 21°   Wind: 3mph
Humidity: 91%   Direction: 140°SE
Pressure: 29.66"   Gusts: NA
Location:  43.79°N, 99.31°W
Report Text: K9V9 221355Z AUTO 14003KT 10SM CLR M05/M06 A2966 RMK AO2 T10491061
Loading
Personal Weather Stations






























Interactive Weather Map New forecast layout! Learn more

10-Day Weather Forecast

Advertisements
Track Severe Weather on mobile